createdAt,value
2022-10-28T00:01:08.749Z,14.90
2022-10-28T00:03:44.235Z,14.90
2022-10-28T00:06:15.059Z,14.90
2022-10-28T00:08:42.796Z,14.80
2022-10-28T00:11:22.682Z,14.80
2022-10-28T00:13:52.340Z,14.70
2022-10-28T00:16:23.877Z,14.60
2022-10-28T00:18:53.719Z,14.50
2022-10-28T00:21:26.033Z,14.40
2022-10-28T00:23:53.444Z,14.40
2022-10-28T00:26:26.181Z,14.40
2022-10-28T00:29:02.437Z,14.50
2022-10-28T00:31:31.045Z,14.30
2022-10-28T00:34:00.424Z,14.30
2022-10-28T00:36:33.217Z,14.20
2022-10-28T00:39:01.650Z,14.20
2022-10-28T00:41:32.086Z,14.10
2022-10-28T00:44:01.981Z,14.10
2022-10-28T00:46:37.906Z,14.20
2022-10-28T00:49:15.056Z,14.20
2022-10-28T00:51:46.224Z,14.30
2022-10-28T00:54:14.203Z,14.50
2022-10-28T00:56:46.161Z,14.70
2022-10-28T00:59:26.612Z,14.80
2022-10-28T01:01:54.379Z,14.90
2022-10-28T01:04:22.538Z,15.00
2022-10-28T01:06:50.517Z,15.00
2022-10-28T01:09:17.960Z,15.00
2022-10-28T01:12:23.204Z,15.00
2022-10-28T01:15:10.264Z,14.90
2022-10-28T01:17:57.530Z,14.80
2022-10-28T01:20:44.266Z,14.60
2022-10-28T01:23:33.941Z,14.50
2022-10-28T01:26:23.828Z,14.30
2022-10-28T01:29:18.919Z,14.30
2022-10-28T01:31:59.671Z,14.20
2022-10-28T01:34:44.198Z,14.20
2022-10-28T01:37:15.453Z,14.20
2022-10-28T01:40:22.605Z,14.10
2022-10-28T01:43:09.141Z,14.10
2022-10-28T01:45:51.388Z,14.00
2022-10-28T01:48:33.473Z,14.10
2022-10-28T01:51:20.975Z,14.00
2022-10-28T01:53:52.483Z,14.10
2022-10-28T01:56:26.995Z,14.20
2022-10-28T01:58:57.749Z,14.20
2022-10-28T02:01:27.470Z,14.20
2022-10-28T02:03:56.310Z,14.20
2022-10-28T02:06:26.918Z,14.20
2022-10-28T02:09:15.634Z,14.10
2022-10-28T02:11:43.073Z,14.00
2022-10-28T02:14:38.749Z,13.90
2022-10-28T02:17:34.147Z,13.70
2022-10-28T02:20:16.586Z,13.70
2022-10-28T02:22:50.846Z,13.60
2022-10-28T02:25:35.331Z,13.50
2022-10-28T02:28:08.960Z,13.40
2022-10-28T02:30:45.501Z,13.30
2022-10-28T02:33:17.859Z,13.10
2022-10-28T02:35:58.658Z,13.10
2022-10-28T02:38:53.146Z,13.10
2022-10-28T02:41:45.854Z,13.00
2022-10-28T02:44:18.584Z,13.00
2022-10-28T02:46:48.596Z,13.00
2022-10-28T02:49:15.883Z,13.00
2022-10-28T02:51:55.745Z,12.90
2022-10-28T02:54:28.262Z,12.90
2022-10-28T02:57:10.815Z,12.90
2022-10-28T02:59:37.962Z,12.90
2022-10-28T03:02:05.286Z,13.00
2022-10-28T03:04:32.479Z,13.10
2022-10-28T03:07:00.016Z,13.20
2022-10-28T03:09:27.166Z,13.20
2022-10-28T03:11:54.290Z,13.20
2022-10-28T03:14:21.417Z,13.20
2022-10-28T03:16:48.590Z,13.30
2022-10-28T03:19:15.726Z,13.30
2022-10-28T03:21:42.876Z,13.40
2022-10-28T03:24:10.058Z,13.50
2022-10-28T03:26:37.293Z,13.60
2022-10-28T03:29:04.492Z,13.60
2022-10-28T03:31:31.642Z,13.70
2022-10-28T03:33:58.777Z,13.70
2022-10-28T03:36:25.959Z,13.70
2022-10-28T03:38:53.449Z,13.70
2022-10-28T03:41:20.679Z,13.70
2022-10-28T03:43:47.794Z,13.70
2022-10-28T03:46:15.095Z,13.70
2022-10-28T03:48:42.318Z,13.60
2022-10-28T03:51:09.889Z,13.60
2022-10-28T03:53:37.245Z,13.60
2022-10-28T03:56:04.787Z,13.50
2022-10-28T03:58:32.015Z,13.50
2022-10-28T04:00:59.873Z,13.40
2022-10-28T04:03:27.074Z,13.40
2022-10-28T04:05:54.477Z,13.40
2022-10-28T04:08:22.051Z,13.20
2022-10-28T04:10:49.296Z,13.20
2022-10-28T04:13:17.223Z,13.10
2022-10-28T04:15:44.878Z,13.10
2022-10-28T04:18:12.248Z,13.20
2022-10-28T04:20:39.983Z,13.20
2022-10-28T04:23:07.124Z,13.10
2022-10-28T04:25:34.329Z,12.90
2022-10-28T04:28:01.468Z,12.80
2022-10-28T04:30:28.679Z,12.80
2022-10-28T04:32:55.848Z,12.80
2022-10-28T04:35:26.019Z,12.80
2022-10-28T04:37:53.339Z,12.80
2022-10-28T04:40:21.154Z,12.80
2022-10-28T04:42:48.288Z,12.80
2022-10-28T04:45:15.593Z,12.90
2022-10-28T04:47:42.761Z,12.90
2022-10-28T04:50:09.961Z,12.90
2022-10-28T04:52:37.133Z,12.90
2022-10-28T04:55:04.690Z,12.90
2022-10-28T04:57:32.859Z,12.80
2022-10-28T04:59:59.978Z,12.80
2022-10-28T05:02:27.553Z,12.70
2022-10-28T05:04:54.812Z,12.80
2022-10-28T05:07:23.559Z,12.70
2022-10-28T05:09:51.274Z,12.70
2022-10-28T05:12:18.421Z,12.70
2022-10-28T05:14:47.223Z,12.70
2022-10-28T05:17:16.274Z,12.50
2022-10-28T05:19:45.364Z,12.50
2022-10-28T05:22:12.555Z,12.40
2022-10-28T05:24:40.055Z,12.30
2022-10-28T05:27:07.241Z,12.20
2022-10-28T05:29:34.560Z,12.10
2022-10-28T05:32:02.325Z,12.20
2022-10-28T05:34:29.502Z,12.20
2022-10-28T05:36:56.798Z,12.20
2022-10-28T05:39:24.203Z,12.20
2022-10-28T05:41:51.331Z,12.10
2022-10-28T05:44:18.528Z,12.20
2022-10-28T05:46:46.068Z,12.10
2022-10-28T05:49:13.238Z,12.00
2022-10-28T05:51:40.361Z,12.10
2022-10-28T05:54:07.743Z,12.10
2022-10-28T05:56:34.975Z,12.00
2022-10-28T05:59:02.182Z,12.00
2022-10-28T06:01:34.144Z,11.90
2022-10-28T06:04:01.469Z,12.00
2022-10-28T06:06:29.371Z,12.00
2022-10-28T06:08:57.024Z,11.90
2022-10-28T06:11:22.730Z,12.00
2022-10-28T06:13:50.078Z,11.90
2022-10-28T06:16:17.306Z,12.00
2022-10-28T06:18:44.449Z,11.90
2022-10-28T06:21:11.677Z,11.90
2022-10-28T06:23:38.915Z,11.80
2022-10-28T06:26:06.113Z,11.80
2022-10-28T06:28:33.270Z,11.70
2022-10-28T06:31:02.130Z,11.60
2022-10-28T06:33:29.882Z,11.50
2022-10-28T06:35:58.273Z,11.50
2022-10-28T06:38:26.891Z,11.60
2022-10-28T06:40:57.866Z,11.70
2022-10-28T06:43:25.125Z,11.90
2022-10-28T06:45:55.293Z,12.00
2022-10-28T06:48:24.314Z,12.10
2022-10-28T06:50:51.545Z,12.10
2022-10-28T06:53:18.772Z,12.10
2022-10-28T06:55:52.912Z,12.20
2022-10-28T06:58:20.809Z,12.30
2022-10-28T07:00:48.379Z,12.40
2022-10-28T07:03:16.093Z,12.50
2022-10-28T07:05:43.361Z,12.60
2022-10-28T07:08:10.681Z,12.80
2022-10-28T07:10:37.945Z,13.10
2022-10-28T07:13:05.261Z,13.00
2022-10-28T07:15:32.486Z,13.20
2022-10-28T07:17:59.982Z,13.40
2022-10-28T07:20:28.114Z,13.60
2022-10-28T07:23:00.130Z,13.90
2022-10-28T07:25:29.002Z,14.10
2022-10-28T07:27:59.550Z,14.20
2022-10-28T07:30:27.924Z,14.20
2022-10-28T07:32:56.074Z,14.50
2022-10-28T07:35:23.653Z,14.90
2022-10-28T07:37:51.222Z,15.40
2022-10-28T07:40:19.495Z,15.70
2022-10-28T07:42:47.107Z,15.80
2022-10-28T07:45:14.927Z,15.80
2022-10-28T07:47:42.421Z,15.70
2022-10-28T07:50:10.931Z,15.60
2022-10-28T07:52:38.781Z,15.60
2022-10-28T07:55:07.711Z,15.70
2022-10-28T07:57:35.383Z,15.70
2022-10-28T08:00:05.503Z,15.80
2022-10-28T08:02:38.050Z,15.90
2022-10-28T08:05:05.839Z,15.80
2022-10-28T08:07:36.201Z,16.00
2022-10-28T08:10:10.240Z,16.00
2022-10-28T08:12:37.514Z,16.10
2022-10-28T08:15:05.544Z,16.10
2022-10-28T08:17:32.689Z,16.10
2022-10-28T08:19:59.808Z,16.20
2022-10-28T08:22:28.010Z,16.30
2022-10-28T08:24:55.172Z,16.40
2022-10-28T08:27:23.437Z,16.60
2022-10-28T08:29:50.582Z,16.60
2022-10-28T08:32:17.718Z,16.70
2022-10-28T08:34:44.988Z,16.80
2022-10-28T08:37:12.225Z,17.30
2022-10-28T08:39:39.582Z,18.30
2022-10-28T08:42:41.172Z,20.20
2022-10-28T08:45:21.796Z,21.70
2022-10-28T08:48:15.193Z,22.70
2022-10-28T08:50:56.377Z,24.10
2022-10-28T08:53:31.632Z,24.90
2022-10-28T08:56:21.967Z,25.40
2022-10-28T08:58:51.943Z,26.30
2022-10-28T09:01:31.016Z,27.10
2022-10-28T09:04:02.408Z,27.60
2022-10-28T09:06:30.677Z,28.10
2022-10-28T09:08:58.946Z,27.90
2022-10-28T09:11:38.090Z,28.00
2022-10-28T09:14:26.985Z,28.20
2022-10-28T09:17:16.183Z,28.00
2022-10-28T09:19:56.970Z,27.60
2022-10-28T09:22:31.136Z,27.60
2022-10-28T09:25:32.623Z,27.70
2022-10-28T09:28:09.863Z,28.40
2022-10-28T09:30:48.881Z,28.40
2022-10-28T09:33:56.445Z,28.70
2022-10-28T09:36:36.691Z,29.10
2022-10-28T09:39:06.367Z,29.20
2022-10-28T09:41:42.592Z,28.70
2022-10-28T09:44:38.944Z,29.10
2022-10-28T09:47:34.846Z,29.30
2022-10-28T09:50:07.388Z,30.10
2022-10-28T09:52:39.838Z,30.20
2022-10-28T09:55:17.174Z,30.70
2022-10-28T09:57:44.381Z,31.20
2022-10-28T10:00:13.787Z,32.20
2022-10-28T10:02:42.604Z,32.30
2022-10-28T10:05:17.166Z,32.80
2022-10-28T10:07:52.325Z,32.40
2022-10-28T10:10:32.233Z,32.50
2022-10-28T10:13:03.910Z,32.60
2022-10-28T10:15:36.416Z,33.00
2022-10-28T10:18:07.105Z,33.20
2022-10-28T10:20:52.880Z,33.40
2022-10-28T10:23:33.529Z,33.80
2022-10-28T10:26:12.258Z,33.90
2022-10-28T10:28:48.653Z,33.70
2022-10-28T10:31:21.981Z,32.90
2022-10-28T10:33:51.712Z,32.10
2022-10-28T10:36:23.422Z,31.90
2022-10-28T10:38:56.069Z,31.60
2022-10-28T10:41:42.542Z,31.50
2022-10-28T10:44:22.071Z,31.80
2022-10-28T10:47:09.712Z,32.50
2022-10-28T10:49:37.571Z,33.60
2022-10-28T10:52:17.908Z,33.40
2022-10-28T10:55:07.703Z,32.70
2022-10-28T10:57:35.062Z,33.10
2022-10-28T11:00:05.887Z,33.60
2022-10-28T11:02:37.892Z,33.00
2022-10-28T11:05:10.170Z,33.50
2022-10-28T11:07:45.353Z,34.00
2022-10-28T11:10:22.260Z,34.90
2022-10-28T11:12:55.670Z,35.40
2022-10-28T11:15:29.667Z,35.70
2022-10-28T11:18:16.790Z,34.80
2022-10-28T11:20:54.835Z,34.30
2022-10-28T11:24:01.932Z,33.60
2022-10-28T11:26:34.543Z,33.70
2022-10-28T11:29:09.902Z,33.20
2022-10-28T11:32:13.941Z,33.00
2022-10-28T11:35:05.196Z,32.00
2022-10-28T11:37:42.273Z,31.50
2022-10-28T11:40:22.025Z,29.60
2022-10-28T11:43:22.927Z,28.80
2022-10-28T11:46:13.541Z,28.70
2022-10-28T11:49:09.053Z,28.10
2022-10-28T11:51:56.206Z,28.00
2022-10-28T11:54:29.676Z,29.60
2022-10-28T11:57:07.121Z,31.50
2022-10-28T11:59:54.271Z,33.30
2022-10-28T12:02:49.358Z,35.00
2022-10-28T12:05:37.141Z,35.30
2022-10-28T12:08:44.027Z,34.50
2022-10-28T12:11:35.583Z,33.50
2022-10-28T12:14:24.183Z,31.70
2022-10-28T12:17:12.767Z,29.70
2022-10-28T12:19:52.563Z,28.50
2022-10-28T12:22:30.217Z,27.90
2022-10-28T12:25:03.016Z,28.00
2022-10-28T12:27:34.783Z,28.40
2022-10-28T12:30:30.245Z,28.40
2022-10-28T12:33:23.605Z,29.00
2022-10-28T12:36:34.092Z,30.80
2022-10-28T12:39:21.089Z,32.00
2022-10-28T12:42:12.558Z,32.50
2022-10-28T12:44:40.648Z,32.20
2022-10-28T12:47:27.311Z,32.30
2022-10-28T12:50:20.311Z,32.50
2022-10-28T12:52:57.263Z,32.70
2022-10-28T12:55:41.724Z,32.40
2022-10-28T12:58:30.996Z,32.80
2022-10-28T13:01:08.598Z,31.40
2022-10-28T13:03:36.558Z,30.50
2022-10-28T13:06:11.546Z,30.10
2022-10-28T13:08:46.531Z,29.50
2022-10-28T13:11:38.081Z,28.70
2022-10-28T13:14:43.821Z,27.60
2022-10-28T13:17:29.725Z,27.10
2022-10-28T13:20:01.532Z,26.80
2022-10-28T13:23:12.949Z,26.20
2022-10-28T13:25:59.295Z,25.90
2022-10-28T13:28:35.557Z,25.80
2022-10-28T13:31:05.982Z,25.60
2022-10-28T13:33:37.203Z,25.20
2022-10-28T13:36:17.722Z,25.00
2022-10-28T13:38:59.644Z,24.80
2022-10-28T13:41:36.232Z,24.70
2022-10-28T13:44:09.306Z,24.50
2022-10-28T13:47:01.241Z,24.20
2022-10-28T13:49:35.848Z,24.10
2022-10-28T13:52:13.060Z,23.90
2022-10-28T13:54:43.160Z,23.80
2022-10-28T13:57:34.981Z,23.50
2022-10-28T14:00:17.415Z,23.30
2022-10-28T14:02:47.763Z,23.20
2022-10-28T14:05:25.505Z,23.10
2022-10-28T14:08:02.393Z,22.90
2022-10-28T14:10:40.130Z,22.70
2022-10-28T14:13:20.670Z,22.60
2022-10-28T14:15:50.074Z,22.60
2022-10-28T14:21:05.366Z,22.40
2022-10-28T14:23:32.703Z,22.30
2022-10-28T14:26:04.739Z,22.20
2022-10-28T14:28:32.753Z,22.10
2022-10-28T14:31:11.960Z,22.00
2022-10-28T14:33:44.843Z,21.80
2022-10-28T14:36:18.838Z,21.70
2022-10-28T14:39:24.301Z,21.60
2022-10-28T14:42:13.717Z,21.40
2022-10-28T14:45:07.039Z,21.40
2022-10-28T14:47:59.242Z,21.30
2022-10-28T14:50:39.275Z,21.10
2022-10-28T14:53:13.899Z,21.10
2022-10-28T14:55:46.827Z,21.00
2022-10-28T14:58:14.080Z,20.90
2022-10-28T15:00:48.505Z,20.80
2022-10-28T15:03:16.516Z,20.70
2022-10-28T15:05:43.916Z,20.60
2022-10-28T15:08:11.620Z,20.50
2022-10-28T15:10:43.076Z,20.30
2022-10-28T15:13:18.013Z,20.20
2022-10-28T15:15:54.236Z,20.20
2022-10-28T15:18:24.763Z,20.10
2022-10-28T15:21:09.707Z,20.00
2022-10-28T15:23:36.907Z,19.90
2022-10-28T15:26:12.416Z,19.80
2022-10-28T15:28:41.007Z,19.70
2022-10-28T15:31:09.783Z,19.70
2022-10-28T15:33:39.977Z,19.50
2022-10-28T15:36:18.605Z,19.40
2022-10-28T15:38:48.477Z,19.30
2022-10-28T15:41:21.914Z,19.20
2022-10-28T15:43:58.527Z,19.10
2022-10-28T15:46:26.702Z,19.00
2022-10-28T15:48:59.407Z,18.90
2022-10-28T15:51:27.163Z,18.80
2022-10-28T15:54:09.077Z,18.80
2022-10-28T15:56:54.535Z,18.70
2022-10-28T15:59:24.387Z,18.60
2022-10-28T16:01:55.983Z,18.50
2022-10-28T16:04:23.583Z,18.60
2022-10-28T16:06:54.474Z,18.60
2022-10-28T16:09:34.443Z,18.50
2022-10-28T16:12:10.419Z,18.50
2022-10-28T16:14:44.561Z,18.50
2022-10-28T16:17:15.473Z,18.50
2022-10-28T16:19:52.615Z,18.50
2022-10-28T16:22:21.045Z,18.50
2022-10-28T16:24:50.849Z,18.50
2022-10-28T16:27:27.283Z,18.50
2022-10-28T16:29:54.693Z,18.50
2022-10-28T16:32:35.274Z,18.50
2022-10-28T16:35:04.217Z,18.50
2022-10-28T16:37:33.994Z,18.50
2022-10-28T16:40:01.207Z,18.50
2022-10-28T16:42:28.370Z,18.40
2022-10-28T16:44:55.512Z,18.30
2022-10-28T16:47:26.560Z,18.20
2022-10-28T16:49:57.362Z,18.20
2022-10-28T16:52:27.998Z,18.20
2022-10-28T16:54:56.044Z,18.10
2022-10-28T16:59:56.378Z,18.10
2022-10-28T17:02:31.960Z,18.00
2022-10-28T17:04:59.758Z,17.90
2022-10-28T17:07:28.542Z,17.80
2022-10-28T17:09:56.681Z,17.80
2022-10-28T17:12:26.230Z,17.80
2022-10-28T17:14:53.640Z,17.80
2022-10-28T17:17:20.868Z,17.90
2022-10-28T17:19:48.179Z,17.90
2022-10-28T17:22:15.889Z,17.90
2022-10-28T17:24:43.061Z,17.90
2022-10-28T17:27:10.207Z,17.90
2022-10-28T17:29:38.609Z,17.80
2022-10-28T17:32:08.525Z,17.70
2022-10-28T17:34:36.104Z,17.70
2022-10-28T17:37:03.845Z,17.70
2022-10-28T17:39:31.093Z,17.70
2022-10-28T17:41:58.552Z,17.70
2022-10-28T17:44:25.906Z,17.60
2022-10-28T17:46:53.094Z,17.60
2022-10-28T17:49:20.285Z,17.60
2022-10-28T17:51:47.524Z,17.60
2022-10-28T17:54:14.745Z,17.60
2022-10-28T17:56:42.291Z,17.60
2022-10-28T17:59:09.643Z,17.60
2022-10-28T18:01:37.181Z,17.60
2022-10-28T18:04:05.937Z,17.60
2022-10-28T18:06:33.145Z,17.60
2022-10-28T18:09:00.304Z,17.60
2022-10-28T18:11:29.765Z,17.70
2022-10-28T18:13:57.216Z,17.80
2022-10-28T18:16:27.874Z,17.90
2022-10-28T18:18:55.710Z,17.90
2022-10-28T18:21:24.397Z,18.00
2022-10-28T18:24:03.352Z,18.00
2022-10-28T18:26:32.091Z,18.10
2022-10-28T18:28:59.707Z,18.10
2022-10-28T18:31:26.940Z,18.20
2022-10-28T18:33:54.232Z,18.20
2022-10-28T18:36:23.645Z,18.20
2022-10-28T18:38:51.527Z,18.30
2022-10-28T18:41:25.734Z,18.30
2022-10-28T18:43:58.243Z,18.20
2022-10-28T18:46:26.008Z,18.20
2022-10-28T18:48:54.992Z,18.20
2022-10-28T18:51:22.479Z,18.20
2022-10-28T18:53:50.711Z,18.30
2022-10-28T18:56:23.935Z,18.30
2022-10-28T18:58:51.518Z,18.40
2022-10-28T19:01:24.759Z,18.30
2022-10-28T19:03:57.120Z,18.30
2022-10-28T19:06:26.150Z,18.20
2022-10-28T19:08:55.459Z,18.20
2022-10-28T19:11:29.913Z,18.20
2022-10-28T19:13:58.750Z,18.10
2022-10-28T19:16:27.343Z,18.00
2022-10-28T19:18:59.214Z,17.90
2022-10-28T19:21:27.649Z,17.80
2022-10-28T19:23:55.565Z,17.80
2022-10-28T19:26:23.609Z,17.80
2022-10-28T19:28:51.583Z,17.90
2022-10-28T19:31:21.482Z,17.90
2022-10-28T19:33:48.707Z,17.90
2022-10-28T19:36:25.632Z,17.80
2022-10-28T19:38:53.855Z,17.80
2022-10-28T19:41:23.501Z,17.80
2022-10-28T19:43:57.950Z,17.80
2022-10-28T19:46:27.996Z,17.70
2022-10-28T19:48:58.487Z,17.70
2022-10-28T19:51:30.827Z,17.60
2022-10-28T19:54:00.367Z,17.60
2022-10-28T19:56:32.805Z,17.60
2022-10-28T19:59:02.192Z,17.70
2022-10-28T20:01:31.899Z,17.60
2022-10-28T20:03:59.263Z,17.50
2022-10-28T20:06:30.818Z,17.40
2022-10-28T20:08:58.014Z,17.50
2022-10-28T20:11:27.592Z,17.60
2022-10-28T20:13:56.945Z,17.60
2022-10-28T20:16:25.024Z,17.60
2022-10-28T20:18:54.540Z,17.70
2022-10-28T20:21:23.863Z,17.70
2022-10-28T20:23:56.246Z,17.80
2022-10-28T20:26:29.176Z,17.80
2022-10-28T20:28:57.364Z,17.90
2022-10-28T20:31:27.049Z,17.90
2022-10-28T20:33:56.739Z,17.90
2022-10-28T20:36:34.333Z,17.90
2022-10-28T20:39:04.478Z,17.90
2022-10-28T20:41:33.381Z,17.90
2022-10-28T20:44:01.508Z,17.90
2022-10-28T20:46:29.274Z,17.90
2022-10-28T20:48:56.818Z,17.90
2022-10-28T20:51:27.298Z,17.90
2022-10-28T20:53:54.681Z,17.80
2022-10-28T20:56:34.242Z,17.80
2022-10-28T20:59:02.065Z,17.60
2022-10-28T21:01:32.913Z,17.40
2022-10-28T21:04:04.581Z,17.40
2022-10-28T21:06:32.036Z,17.30
2022-10-28T21:08:59.422Z,17.30
2022-10-28T21:11:27.769Z,17.10
2022-10-28T21:13:58.001Z,16.90
2022-10-28T21:16:26.209Z,16.90
2022-10-28T21:18:54.181Z,17.00
2022-10-28T21:21:23.203Z,17.00
2022-10-28T21:23:50.687Z,17.00
2022-10-28T21:26:18.407Z,16.90
2022-10-28T21:28:49.512Z,16.90
2022-10-28T21:31:18.167Z,16.90
2022-10-28T21:33:46.129Z,17.10
2022-10-28T21:36:18.663Z,17.20
2022-10-28T21:38:45.971Z,17.20
2022-10-28T21:41:19.838Z,17.20
2022-10-28T21:43:49.714Z,17.10
2022-10-28T21:46:18.948Z,17.00
2022-10-28T21:48:46.741Z,17.00
2022-10-28T21:51:15.642Z,17.10
2022-10-28T21:53:44.362Z,17.20
2022-10-28T21:56:17.722Z,17.20
2022-10-28T21:58:47.611Z,17.20
2022-10-28T22:01:17.397Z,17.20
2022-10-28T22:03:44.682Z,17.10
2022-10-28T22:06:12.024Z,17.10
2022-10-28T22:08:39.284Z,17.10
2022-10-28T22:11:10.138Z,17.00
2022-10-28T22:13:37.381Z,17.00
2022-10-28T22:16:07.255Z,16.90
2022-10-28T22:18:36.189Z,17.00
2022-10-28T22:21:05.591Z,17.00
2022-10-28T22:23:33.115Z,17.00
2022-10-28T22:26:04.981Z,17.10
2022-10-28T22:28:32.542Z,17.10
2022-10-28T22:31:05.562Z,17.10
2022-10-28T22:33:33.335Z,17.00
2022-10-28T22:36:03.274Z,17.00
2022-10-28T22:38:30.775Z,17.00
2022-10-28T22:41:14.643Z,16.90
2022-10-28T22:43:43.506Z,16.80
2022-10-28T22:46:11.659Z,16.70
2022-10-28T22:48:38.845Z,16.70
2022-10-28T22:51:06.054Z,16.60
2022-10-28T22:53:33.975Z,16.40
2022-10-28T22:56:01.239Z,16.30
2022-10-28T22:58:28.632Z,16.20
2022-10-28T23:01:25.722Z,16.20
2022-10-28T23:03:54.285Z,16.10
2022-10-28T23:06:23.689Z,16.10
2022-10-28T23:08:50.938Z,16.20
2022-10-28T23:11:19.406Z,16.30
2022-10-28T23:13:50.247Z,16.40
2022-10-28T23:16:17.398Z,16.40
2022-10-28T23:18:44.835Z,16.30
2022-10-28T23:21:14.423Z,16.20
2022-10-28T23:23:42.482Z,16.20
2022-10-28T23:26:10.640Z,16.10
2022-10-28T23:28:37.832Z,16.00
2022-10-28T23:31:06.496Z,16.00
2022-10-28T23:33:34.628Z,15.90
2022-10-28T23:36:03.892Z,15.80
2022-10-28T23:38:31.368Z,15.80
2022-10-28T23:41:01.627Z,15.60
2022-10-28T23:43:30.098Z,15.50
2022-10-28T23:45:58.461Z,15.40
2022-10-28T23:48:27.564Z,15.30
2022-10-28T23:50:55.228Z,15.20
2022-10-28T23:53:23.120Z,15.10
2022-10-28T23:55:51.076Z,15.00
2022-10-28T23:58:21.360Z,15.00
